Main page
METAR-TAF:

METAR-TAF

Airports :

Turin-Aeritalia Airport

Turin, Italy

latitude: 45-05-20N, longitude: 007-36-20E, elevation: 288 m

Current weather observation

The report was made 9 hours and 59 minutes ago, at 16:50 UTC
Wind 3 kt from the South/Southwest, varying between South/Southeast and Southwest
Temperature 29°C
Humidity 40%
Pressure 1016 hPa
Visibility 10 km or more
no clouds below 1500 m and no cumulonimbus

METAR: LIMA 181650Z 21003KT 160V230 CAVOK 29/14 Q1016

Time: 04:49 (02:49 UTC)


TAF: missing

Weather observations and forecasts of more than 4000 airports (METAR and TAF reports).

The available stations are represented by yellow and red dots on the map.

Hover mouse over dot to see the name of the station.

Then click to see weather observations and forecasts.

To change the map : click on the green buttons with a black cross to zoom in, on the green button with a dash to zoom out, or on the green arrows for adjacent maps.


METAR-TAF: